sensor_id;sensor_type;location;lat;lon;timestamp;pressure;altitude;pressure_sealevel;temperature;humidity
29985;BME280;17387;42.690;23.328;2022-09-19T00:01:16;47656.66;;;-144.02;84.46
29985;BME280;17387;42.690;23.328;2022-09-19T00:03:45;47741.97;;;-144.02;84.87
29985;BME280;17387;42.690;23.328;2022-09-19T00:06:15;47705.41;;;-144.02;85.20
29985;BME280;17387;42.690;23.328;2022-09-19T00:08:48;47713.53;;;-144.02;83.73
29985;BME280;17387;42.690;23.328;2022-09-19T00:11:19;47640.41;;;-144.02;83.87
29985;BME280;17387;42.690;23.328;2022-09-19T00:13:47;47689.16;;;-144.02;84.23
29985;BME280;17387;42.690;23.328;2022-09-19T00:16:38;47697.28;;;-144.02;84.52
29985;BME280;17387;42.690;23.328;2022-09-19T00:19:03;47652.59;;;-144.02;85.11
29985;BME280;17387;42.690;23.328;2022-09-19T00:21:38;47668.84;;;-144.02;85.35
29985;BME280;17387;42.690;23.328;2022-09-19T00:24:04;47654.63;;;-144.02;85.15
29985;BME280;17387;42.690;23.328;2022-09-19T00:26:49;47707.44;;;-144.02;85.87
29985;BME280;17387;42.690;23.328;2022-09-19T00:29:17;47725.72;;;-144.02;86.56
29985;BME280;17387;42.690;23.328;2022-09-19T00:31:45;47709.47;;;-144.02;87.05
29985;BME280;17387;42.690;23.328;2022-09-19T00:34:16;47766.34;;;-144.02;87.36
29985;BME280;17387;42.690;23.328;2022-09-19T00:36:44;47695.25;;;-144.02;86.94
29985;BME280;17387;42.690;23.328;2022-09-19T00:39:16;47693.22;;;-144.02;86.48
29985;BME280;17387;42.690;23.328;2022-09-19T00:41:42;47650.56;;;-144.02;86.32
29985;BME280;17387;42.690;23.328;2022-09-19T00:46:51;47758.22;;;-144.02;86.70
29985;BME280;17387;42.690;23.328;2022-09-19T00:49:21;47725.72;;;-144.02;86.62
29985;BME280;17387;42.690;23.328;2022-09-19T00:51:51;47642.44;;;-144.02;86.74
29985;BME280;17387;42.690;23.328;2022-09-19T00:54:21;47693.22;;;-144.02;87.61
29985;BME280;17387;42.690;23.328;2022-09-19T00:56:50;47729.78;;;-144.02;88.03
29985;BME280;17387;42.690;23.328;2022-09-19T00:59:17;47705.41;;;-144.02;87.84
29985;BME280;17387;42.690;23.328;2022-09-19T01:01:44;47715.56;;;-144.02;88.10
29985;BME280;17387;42.690;23.328;2022-09-19T01:04:23;47670.88;;;-144.02;87.81
29985;BME280;17387;42.690;23.328;2022-09-19T01:09:46;47707.44;;;-144.02;87.82
29985;BME280;17387;42.690;23.328;2022-09-19T01:12:28;47709.47;;;-144.02;88.21
29985;BME280;17387;42.690;23.328;2022-09-19T01:18:06;47725.72;;;-144.02;89.12
29985;BME280;17387;42.690;23.328;2022-09-19T01:20:59;47683.06;;;-144.02;89.42
29985;BME280;17387;42.690;23.328;2022-09-19T01:23:58;47717.59;;;-144.02;89.73
29985;BME280;17387;42.690;23.328;2022-09-19T01:29:23;47668.84;;;-144.02;89.18
29985;BME280;17387;42.690;23.328;2022-09-19T01:31:57;47689.16;;;-144.02;89.54
29985;BME280;17387;42.690;23.328;2022-09-19T01:34:32;47670.88;;;-144.02;90.08
29985;BME280;17387;42.690;23.328;2022-09-19T01:37:10;47713.53;;;-144.02;90.24
29985;BME280;17387;42.690;23.328;2022-09-19T01:39:40;47725.72;;;-144.02;89.82
29985;BME280;17387;42.690;23.328;2022-09-19T01:42:11;47754.16;;;-144.02;90.16
29985;BME280;17387;42.690;23.328;2022-09-19T01:44:36;47733.84;;;-144.02;90.16
29985;BME280;17387;42.690;23.328;2022-09-19T01:53:02;47735.88;;;-144.02;90.67
29985;BME280;17387;42.690;23.328;2022-09-19T01:55:40;47656.66;;;-144.02;90.54
29985;BME280;17387;42.690;23.328;2022-09-19T02:01:35;47689.16;;;-144.02;90.70
29985;BME280;17387;42.690;23.328;2022-09-19T02:07:02;47689.16;;;-144.02;91.01
29985;BME280;17387;42.690;23.328;2022-09-19T02:09:56;47739.94;;;-144.02;90.29
29985;BME280;17387;42.690;23.328;2022-09-19T02:12:27;47711.50;;;-144.02;90.27
29985;BME280;17387;42.690;23.328;2022-09-19T02:14:57;47709.47;;;-144.02;90.10
29985;BME280;17387;42.690;23.328;2022-09-19T02:17:35;47770.41;;;-144.02;90.13
29985;BME280;17387;42.690;23.328;2022-09-19T02:20:13;47737.91;;;-144.02;90.03
29985;BME280;17387;42.690;23.328;2022-09-19T02:22:47;47725.72;;;-144.02;90.41
29985;BME280;17387;42.690;23.328;2022-09-19T02:25:18;47746.03;;;-144.02;90.21
29985;BME280;17387;42.690;23.328;2022-09-19T02:27:54;47703.38;;;-144.02;90.26
29985;BME280;17387;42.690;23.328;2022-09-19T02:30:22;47752.13;;;-144.02;89.95
29985;BME280;17387;42.690;23.328;2022-09-19T02:32:50;47735.88;;;-144.02;89.94
29985;BME280;17387;42.690;23.328;2022-09-19T02:35:25;47660.72;;;-144.02;89.73
29985;BME280;17387;42.690;23.328;2022-09-19T02:38:23;47693.22;;;-144.02;90.13
29985;BME280;17387;42.690;23.328;2022-09-19T02:40:56;47727.75;;;-144.02;90.56
29985;BME280;17387;42.690;23.328;2022-09-19T02:43:40;47725.72;;;-144.02;90.39
29985;BME280;17387;42.690;23.328;2022-09-19T02:46:34;47786.66;;;-144.02;90.14
29985;BME280;17387;42.690;23.328;2022-09-19T02:51:33;47676.97;;;-144.02;90.52
29985;BME280;17387;42.690;23.328;2022-09-19T02:54:04;47746.03;;;-144.02;90.01
29985;BME280;17387;42.690;23.328;2022-09-19T02:56:36;47681.03;;;-144.02;90.89
29985;BME280;17387;42.690;23.328;2022-09-19T02:59:08;47709.47;;;-144.02;91.70
29985;BME280;17387;42.690;23.328;2022-09-19T03:01:42;47756.19;;;-144.02;91.00
29985;BME280;17387;42.690;23.328;2022-09-19T03:04:13;47717.59;;;-144.02;90.34
29985;BME280;17387;42.690;23.328;2022-09-19T03:07:07;47752.13;;;-144.02;90.69
29985;BME280;17387;42.690;23.328;2022-09-19T03:09:40;47727.75;;;-144.02;90.49
29985;BME280;17387;42.690;23.328;2022-09-19T03:12:22;47687.13;;;-144.02;90.31
29985;BME280;17387;42.690;23.328;2022-09-19T03:14:53;47774.47;;;-144.02;90.31
29985;BME280;17387;42.690;23.328;2022-09-19T03:17:30;47721.66;;;-144.02;90.34
29985;BME280;17387;42.690;23.328;2022-09-19T03:19:57;47782.59;;;-144.02;90.51
29985;BME280;17387;42.690;23.328;2022-09-19T03:22:23;47672.91;;;-144.02;90.50
29985;BME280;17387;42.690;23.328;2022-09-19T03:24:51;47713.53;;;-144.02;90.54
29985;BME280;17387;42.690;23.328;2022-09-19T03:27:17;47717.59;;;-144.02;90.53
29985;BME280;17387;42.690;23.328;2022-09-19T03:29:48;47703.38;;;-144.02;90.46
29985;BME280;17387;42.690;23.328;2022-09-19T03:32:14;47713.53;;;-144.02;90.58
29985;BME280;17387;42.690;23.328;2022-09-19T03:34:40;47762.28;;;-144.02;91.09
29985;BME280;17387;42.690;23.328;2022-09-19T03:37:06;47717.59;;;-144.02;91.28
29985;BME280;17387;42.690;23.328;2022-09-19T03:39:32;47725.72;;;-144.02;91.11
29985;BME280;17387;42.690;23.328;2022-09-19T03:41:58;47697.28;;;-144.02;91.32
29985;BME280;17387;42.690;23.328;2022-09-19T03:44:24;47723.69;;;-144.02;91.27
29985;BME280;17387;42.690;23.328;2022-09-19T03:46:49;47693.22;;;-144.02;91.06
29985;BME280;17387;42.690;23.328;2022-09-19T03:49:15;47764.31;;;-144.02;91.20
29985;BME280;17387;42.690;23.328;2022-09-19T03:51:44;47685.09;;;-144.02;91.26
29985;BME280;17387;42.690;23.328;2022-09-19T03:54:12;47715.56;;;-144.02;91.36
29985;BME280;17387;42.690;23.328;2022-09-19T03:56:48;47676.97;;;-144.02;91.33
29985;BME280;17387;42.690;23.328;2022-09-19T03:59:32;47703.38;;;-144.02;91.54
29985;BME280;17387;42.690;23.328;2022-09-19T04:02:04;47701.34;;;-144.02;91.42
29985;BME280;17387;42.690;23.328;2022-09-19T04:04:29;47685.09;;;-144.02;91.25
29985;BME280;17387;42.690;23.328;2022-09-19T04:06:55;47729.78;;;-144.02;91.18
29985;BME280;17387;42.690;23.328;2022-09-19T04:09:21;47774.47;;;-144.02;91.61
29985;BME280;17387;42.690;23.328;2022-09-19T04:11:49;47741.97;;;-144.02;91.44
29985;BME280;17387;42.690;23.328;2022-09-19T04:14:17;47766.34;;;-144.02;91.42
29985;BME280;17387;42.690;23.328;2022-09-19T04:16:43;47741.97;;;-144.02;91.58
29985;BME280;17387;42.690;23.328;2022-09-19T04:19:09;47717.59;;;-144.02;91.46
29985;BME280;17387;42.690;23.328;2022-09-19T04:21:38;47733.84;;;-144.02;91.59
29985;BME280;17387;42.690;23.328;2022-09-19T04:24:11;47709.47;;;-144.02;91.32
29985;BME280;17387;42.690;23.328;2022-09-19T04:26:38;47689.16;;;-144.02;91.28
29985;BME280;17387;42.690;23.328;2022-09-19T04:29:04;47733.84;;;-144.02;91.36
29985;BME280;17387;42.690;23.328;2022-09-19T04:31:32;47756.19;;;-144.02;91.50
29985;BME280;17387;42.690;23.328;2022-09-19T04:34:06;47721.66;;;-144.02;91.43
29985;BME280;17387;42.690;23.328;2022-09-19T04:36:37;47709.47;;;-144.02;90.90
29985;BME280;17387;42.690;23.328;2022-09-19T04:39:05;47729.78;;;-144.02;91.03
29985;BME280;17387;42.690;23.328;2022-09-19T04:41:33;47723.69;;;-144.02;90.90
29985;BME280;17387;42.690;23.328;2022-09-19T04:44:01;47691.19;;;-144.02;90.10
29985;BME280;17387;42.690;23.328;2022-09-19T04:46:27;47762.28;;;-144.02;89.75
29985;BME280;17387;42.690;23.328;2022-09-19T04:48:57;47711.50;;;-144.02;90.06
29985;BME280;17387;42.690;23.328;2022-09-19T04:51:23;47715.56;;;-144.02;89.99
29985;BME280;17387;42.690;23.328;2022-09-19T04:53:50;47676.97;;;-144.02;89.93
29985;BME280;17387;42.690;23.328;2022-09-19T04:56:17;47754.16;;;-144.02;89.59
29985;BME280;17387;42.690;23.328;2022-09-19T04:58:44;47693.22;;;-144.02;89.56
29985;BME280;17387;42.690;23.328;2022-09-19T05:01:11;47701.34;;;-144.02;89.81
29985;BME280;17387;42.690;23.328;2022-09-19T05:03:37;47762.28;;;-144.02;89.48
29985;BME280;17387;42.690;23.328;2022-09-19T05:06:03;47748.06;;;-144.02;89.35
29985;BME280;17387;42.690;23.328;2022-09-19T05:08:32;47703.38;;;-144.02;88.90
29985;BME280;17387;42.690;23.328;2022-09-19T05:11:00;47764.31;;;-144.02;88.59
29985;BME280;17387;42.690;23.328;2022-09-19T05:13:28;47705.41;;;-144.02;88.20
29985;BME280;17387;42.690;23.328;2022-09-19T05:15:55;47705.41;;;-144.02;87.79
29985;BME280;17387;42.690;23.328;2022-09-19T05:18:22;47705.41;;;-144.02;87.70
29985;BME280;17387;42.690;23.328;2022-09-19T05:20:51;47750.09;;;-144.02;87.21
29985;BME280;17387;42.690;23.328;2022-09-19T05:23:21;47703.38;;;-144.02;86.17
29985;BME280;17387;42.690;23.328;2022-09-19T05:25:49;47719.63;;;-144.02;85.80
29985;BME280;17387;42.690;23.328;2022-09-19T05:28:19;47691.19;;;-144.02;85.09
29985;BME280;17387;42.690;23.328;2022-09-19T05:30:47;47681.03;;;-144.02;85.04
29985;BME280;17387;42.690;23.328;2022-09-19T05:33:15;47729.78;;;-144.02;83.90
29985;BME280;17387;42.690;23.328;2022-09-19T05:35:54;47780.56;;;-144.02;84.15
29985;BME280;17387;42.690;23.328;2022-09-19T05:38:22;47768.38;;;-144.02;83.09
29985;BME280;17387;42.690;23.328;2022-09-19T05:40:55;47782.59;;;-144.02;82.85
29985;BME280;17387;42.690;23.328;2022-09-19T05:43:21;47701.34;;;-144.02;84.06
29985;BME280;17387;42.690;23.328;2022-09-19T05:45:48;47746.03;;;-144.02;83.49
29985;BME280;17387;42.690;23.328;2022-09-19T05:48:15;47752.13;;;-144.02;83.58
29985;BME280;17387;42.690;23.328;2022-09-19T05:50:45;47672.91;;;-144.02;82.82
29985;BME280;17387;42.690;23.328;2022-09-19T05:53:13;47758.22;;;-144.02;82.59
29985;BME280;17387;42.690;23.328;2022-09-19T05:55:57;47721.66;;;-144.02;82.17
29985;BME280;17387;42.690;23.328;2022-09-19T05:58:23;47713.53;;;-144.02;82.06
29985;BME280;17387;42.690;23.328;2022-09-19T06:00:50;47741.97;;;-144.02;81.24
29985;BME280;17387;42.690;23.328;2022-09-19T06:03:16;47672.91;;;-144.02;80.67
29985;BME280;17387;42.690;23.328;2022-09-19T06:05:44;47681.03;;;-144.02;80.08
29985;BME280;17387;42.690;23.328;2022-09-19T06:08:13;47676.97;;;-144.02;79.37
29985;BME280;17387;42.690;23.328;2022-09-19T06:10:42;47701.34;;;-144.02;78.57
29985;BME280;17387;42.690;23.328;2022-09-19T06:13:34;47691.19;;;-144.02;78.40
29985;BME280;17387;42.690;23.328;2022-09-19T06:16:18;47737.91;;;-144.02;78.79
29985;BME280;17387;42.690;23.328;2022-09-19T06:18:44;47660.72;;;-144.02;77.74
29985;BME280;17387;42.690;23.328;2022-09-19T06:21:10;47705.41;;;-144.02;78.40
29985;BME280;17387;42.690;23.328;2022-09-19T06:23:35;47746.03;;;-144.02;77.61
29985;BME280;17387;42.690;23.328;2022-09-19T06:26:01;47650.56;;;-144.02;77.10
29985;BME280;17387;42.690;23.328;2022-09-19T06:28:26;47681.03;;;-144.02;76.80
29985;BME280;17387;42.690;23.328;2022-09-19T06:30:52;47681.03;;;-144.02;76.09
29985;BME280;17387;42.690;23.328;2022-09-19T06:33:18;47652.59;;;-144.02;75.74
29985;BME280;17387;42.690;23.328;2022-09-19T06:35:44;47739.94;;;-144.02;75.38
29985;BME280;17387;42.690;23.328;2022-09-19T06:38:09;47685.09;;;-144.02;75.64
29985;BME280;17387;42.690;23.328;2022-09-19T06:40:35;47717.59;;;-144.02;74.78
29985;BME280;17387;42.690;23.328;2022-09-19T06:43:05;47666.81;;;-144.02;74.40
29985;BME280;17387;42.690;23.328;2022-09-19T06:45:33;47679.00;;;-144.02;73.35
29985;BME280;17387;42.690;23.328;2022-09-19T06:48:06;47644.47;;;-144.02;73.32
29985;BME280;17387;42.690;23.328;2022-09-19T06:50:32;47658.69;;;-144.02;73.08
29985;BME280;17387;42.690;23.328;2022-09-19T06:53:01;47729.78;;;-144.02;73.55
29985;BME280;17387;42.690;23.328;2022-09-19T06:55:27;47648.53;;;-144.02;72.40
29985;BME280;17387;42.690;23.328;2022-09-19T06:58:16;47642.44;;;-144.02;71.44
29985;BME280;17387;42.690;23.328;2022-09-19T07:00:44;47685.09;;;-144.02;71.23
29985;BME280;17387;42.690;23.328;2022-09-19T07:03:12;47628.22;;;-144.02;70.51
29985;BME280;17387;42.690;23.328;2022-09-19T07:05:45;47632.28;;;-144.02;70.02
29985;BME280;17387;42.690;23.328;2022-09-19T07:08:13;47733.84;;;-144.02;69.44
29985;BME280;17387;42.690;23.328;2022-09-19T07:10:42;47648.53;;;-144.02;69.89
29985;BME280;17387;42.690;23.328;2022-09-19T07:13:09;47666.81;;;-144.02;70.14
29985;BME280;17387;42.690;23.328;2022-09-19T07:15:38;47676.97;;;-144.02;69.33
29985;BME280;17387;42.690;23.328;2022-09-19T07:18:07;47640.41;;;-144.02;68.34
29985;BME280;17387;42.690;23.328;2022-09-19T07:20:34;47642.44;;;-144.02;68.16
29985;BME280;17387;42.690;23.328;2022-09-19T07:23:13;47697.28;;;-144.02;67.76
29985;BME280;17387;42.690;23.328;2022-09-19T07:25:43;47705.41;;;-144.02;66.65
29985;BME280;17387;42.690;23.328;2022-09-19T07:28:12;47676.97;;;-144.02;65.54
29985;BME280;17387;42.690;23.328;2022-09-19T07:30:41;47660.72;;;-144.02;65.26
29985;BME280;17387;42.690;23.328;2022-09-19T07:33:11;47679.00;;;-144.02;63.04
29985;BME280;17387;42.690;23.328;2022-09-19T07:35:56;47599.78;;;-144.02;63.63
29985;BME280;17387;42.690;23.328;2022-09-19T07:38:28;47573.38;;;-144.02;63.26
29985;BME280;17387;42.690;23.328;2022-09-19T07:40:54;47668.84;;;-144.02;63.67
29985;BME280;17387;42.690;23.328;2022-09-19T07:43:31;47636.34;;;-144.02;63.24
29985;BME280;17387;42.690;23.328;2022-09-19T07:45:57;47646.50;;;-144.02;62.24
29985;BME280;17387;42.690;23.328;2022-09-19T07:48:26;47640.41;;;-144.02;61.56
29985;BME280;17387;42.690;23.328;2022-09-19T07:50:52;47611.97;;;-144.02;61.16
29985;BME280;17387;42.690;23.328;2022-09-19T07:53:20;47642.44;;;-144.02;61.08
29985;BME280;17387;42.690;23.328;2022-09-19T07:55:54;47656.66;;;-144.02;59.23
29985;BME280;17387;42.690;23.328;2022-09-19T07:58:23;47664.78;;;-144.02;59.57
29985;BME280;17387;42.690;23.328;2022-09-19T08:00:48;47681.03;;;-144.02;59.66
29985;BME280;17387;42.690;23.328;2022-09-19T08:03:17;47664.78;;;-144.02;58.52
29985;BME280;17387;42.690;23.328;2022-09-19T08:05:45;47595.72;;;-144.02;58.12
29985;BME280;17387;42.690;23.328;2022-09-19T08:08:13;47583.53;;;-144.02;57.23
29985;BME280;17387;42.690;23.328;2022-09-19T08:10:39;47664.78;;;-144.02;57.20
29985;BME280;17387;42.690;23.328;2022-09-19T08:13:06;47611.97;;;-144.02;57.68
29985;BME280;17387;42.690;23.328;2022-09-19T08:15:33;47693.22;;;-144.02;57.43
29985;BME280;17387;42.690;23.328;2022-09-19T08:18:09;47579.47;;;-144.02;57.98
29985;BME280;17387;42.690;23.328;2022-09-19T08:20:37;47603.84;;;-144.02;56.98
29985;BME280;17387;42.690;23.328;2022-09-19T08:23:04;47656.66;;;-144.02;57.56
29985;BME280;17387;42.690;23.328;2022-09-19T08:25:33;47571.38;;;-144.02;57.08
29985;BME280;17387;42.690;23.328;2022-09-19T08:28:00;47630.25;;;-144.02;57.06
29985;BME280;17387;42.690;23.328;2022-09-19T08:30:29;47583.53;;;-144.02;56.38
29985;BME280;17387;42.690;23.328;2022-09-19T08:32:55;47628.22;;;-144.02;56.47
29985;BME280;17387;42.690;23.328;2022-09-19T08:35:23;47652.59;;;-144.02;56.51
29985;BME280;17387;42.690;23.328;2022-09-19T08:37:57;47638.38;;;-144.02;56.96
29985;BME280;17387;42.690;23.328;2022-09-19T08:40:29;47640.41;;;-144.02;57.60
29985;BME280;17387;42.690;23.328;2022-09-19T08:48:02;47563.22;;;-144.02;55.17
29985;BME280;17387;42.690;23.328;2022-09-19T08:50:31;47555.13;;;-144.02;55.22
29985;BME280;17387;42.690;23.328;2022-09-19T08:53:00;47660.72;;;-144.02;54.05
29985;BME280;17387;42.690;23.328;2022-09-19T08:55:30;47632.28;;;-144.02;53.76
29985;BME280;17387;42.690;23.328;2022-09-19T08:58:06;47624.16;;;-144.02;54.36
29985;BME280;17387;42.690;23.328;2022-09-19T09:00:41;47587.59;;;-144.02;54.66
29985;BME280;17387;42.690;23.328;2022-09-19T09:03:21;47634.31;;;-144.02;54.35
29985;BME280;17387;42.690;23.328;2022-09-19T09:06:19;47628.22;;;-144.02;53.84
29985;BME280;17387;42.690;23.328;2022-09-19T09:22:26;47567.28;;;-144.02;52.40
29985;BME280;17387;42.690;23.328;2022-09-19T09:25:17;47595.72;;;-144.02;52.36
29985;BME280;17387;42.690;23.328;2022-09-19T09:27:56;47652.59;;;-144.02;52.05
29985;BME280;17387;42.690;23.328;2022-09-19T09:30:23;47547.00;;;-144.02;50.41
29985;BME280;17387;42.690;23.328;2022-09-19T09:32:53;47540.91;;;-144.02;49.40
29985;BME280;17387;42.690;23.328;2022-09-19T09:35:33;47563.22;;;-144.02;49.93
29985;BME280;17387;42.690;23.328;2022-09-19T09:38:19;47514.50;;;-144.02;49.52
29985;BME280;17387;42.690;23.328;2022-09-19T09:49:52;47553.09;;;-144.02;47.92
29985;BME280;17387;42.690;23.328;2022-09-19T09:58:22;47559.19;;;-144.02;47.30
29985;BME280;17387;42.690;23.328;2022-09-19T10:00:53;47565.28;;;-144.02;47.64
29985;BME280;17387;42.690;23.328;2022-09-19T10:03:48;47547.00;;;-144.02;47.50
29985;BME280;17387;42.690;23.328;2022-09-19T10:06:45;47565.28;;;-144.02;46.70
29985;BME280;17387;42.690;23.328;2022-09-19T10:09:14;47534.81;;;-144.02;46.81
29985;BME280;17387;42.690;23.328;2022-09-19T10:11:54;47551.06;;;-144.02;47.22
29985;BME280;17387;42.690;23.328;2022-09-19T10:14:26;47571.38;;;-144.02;46.25
29985;BME280;17387;42.690;23.328;2022-09-19T10:16:59;47587.59;;;-144.02;45.93
29985;BME280;17387;42.690;23.328;2022-09-19T10:19:39;47559.19;;;-144.02;45.56
29985;BME280;17387;42.690;23.328;2022-09-19T10:22:10;47538.88;;;-144.02;45.14
29985;BME280;17387;42.690;23.328;2022-09-19T10:24:40;47563.22;;;-144.02;44.97
29985;BME280;17387;42.690;23.328;2022-09-19T10:27:26;47526.69;;;-144.02;44.54
29985;BME280;17387;42.690;23.328;2022-09-19T10:30:08;47555.13;;;-144.02;44.81
29985;BME280;17387;42.690;23.328;2022-09-19T10:32:36;47520.59;;;-144.02;43.88
29985;BME280;17387;42.690;23.328;2022-09-19T10:40:29;47532.78;;;-144.02;43.35
29985;BME280;17387;42.690;23.328;2022-09-19T10:42:56;47494.19;;;-144.02;42.04
29985;BME280;17387;42.690;23.328;2022-09-19T10:45:22;47567.28;;;-144.02;42.05
29985;BME280;17387;42.690;23.328;2022-09-19T10:50:29;47516.53;;;-144.02;39.82
29985;BME280;17387;42.690;23.328;2022-09-19T10:53:03;47563.22;;;-144.02;39.72
29985;BME280;17387;42.690;23.328;2022-09-19T10:55:29;47579.47;;;-144.02;39.06
29985;BME280;17387;42.690;23.328;2022-09-19T10:58:02;47477.94;;;-144.02;38.97
29985;BME280;17387;42.690;23.328;2022-09-19T11:03:34;47601.81;;;-144.02;37.69
29985;BME280;17387;42.690;23.328;2022-09-19T11:06:16;47532.78;;;-144.02;37.57
29985;BME280;17387;42.690;23.328;2022-09-19T11:08:48;47522.63;;;-144.02;37.53
29985;BME280;17387;42.690;23.328;2022-09-19T11:11:28;47532.78;;;-144.02;38.06
29985;BME280;17387;42.690;23.328;2022-09-19T11:23:09;47551.06;;;-144.02;36.45
29985;BME280;17387;42.690;23.328;2022-09-19T11:34:45;47520.59;;;-144.02;35.08
29985;BME280;17387;42.690;23.328;2022-09-19T11:42:58;47506.38;;;-144.02;33.78
29985;BME280;17387;42.690;23.328;2022-09-19T11:45:35;47512.47;;;-144.02;32.35
29985;BME280;17387;42.690;23.328;2022-09-19T11:53:48;47526.69;;;-144.02;31.56
29985;BME280;17387;42.690;23.328;2022-09-19T12:07:33;47514.50;;;-144.02;30.80
29985;BME280;17387;42.690;23.328;2022-09-19T12:10:21;47490.13;;;-144.02;29.73
29985;BME280;17387;42.690;23.328;2022-09-19T12:13:03;47506.38;;;-144.02;29.27
29985;BME280;17387;42.690;23.328;2022-09-19T12:15:33;47465.75;;;-144.02;29.73
29985;BME280;17387;42.690;23.328;2022-09-19T12:18:07;47482.00;;;-144.02;29.65
29985;BME280;17387;42.690;23.328;2022-09-19T12:20:39;47445.44;;;-144.02;29.37
29985;BME280;17387;42.690;23.328;2022-09-19T12:26:20;47538.88;;;-144.02;29.39
29985;BME280;17387;42.690;23.328;2022-09-19T12:28:58;47518.56;;;-144.02;29.27
29985;BME280;17387;42.690;23.328;2022-09-19T12:31:31;47453.56;;;-144.02;29.71
29985;BME280;17387;42.690;23.328;2022-09-19T12:34:08;47412.94;;;-144.02;30.43
29985;BME280;17387;42.690;23.328;2022-09-19T12:36:48;47467.78;;;-144.02;31.08
29985;BME280;17387;42.690;23.328;2022-09-19T12:39:40;47469.81;;;-144.02;30.79
29985;BME280;17387;42.690;23.328;2022-09-19T12:48:07;47457.63;;;-144.02;27.75
29985;BME280;17387;42.690;23.328;2022-09-19T12:50:42;47402.78;;;-144.02;25.73
29985;BME280;17387;42.690;23.328;2022-09-19T12:56:13;47412.94;;;-144.02;23.87
29985;BME280;17387;42.690;23.328;2022-09-19T13:01:39;47388.56;;;-144.02;23.79
29985;BME280;17387;42.690;23.328;2022-09-19T13:04:26;47347.94;;;-144.02;23.43
29985;BME280;17387;42.690;23.328;2022-09-19T13:06:59;47374.34;;;-144.02;22.61
29985;BME280;17387;42.690;23.328;2022-09-19T13:09:48;47360.13;;;-144.02;22.55
29985;BME280;17387;42.690;23.328;2022-09-19T13:12:18;47429.19;;;-144.02;22.67
29985;BME280;17387;42.690;23.328;2022-09-19T13:14:50;47382.47;;;-144.02;22.13
29985;BME280;17387;42.690;23.328;2022-09-19T13:17:19;47402.78;;;-144.02;22.41
29985;BME280;17387;42.690;23.328;2022-09-19T13:20:06;47343.88;;;-144.02;22.31
29985;BME280;17387;42.690;23.328;2022-09-19T13:23:00;47376.38;;;-144.02;22.81
29985;BME280;17387;42.690;23.328;2022-09-19T13:25:45;47341.84;;;-144.02;22.64
29985;BME280;17387;42.690;23.328;2022-09-19T13:30:50;47400.75;;;-144.02;22.93
29985;BME280;17387;42.690;23.328;2022-09-19T13:33:24;47425.13;;;-144.02;22.61
29985;BME280;17387;42.690;23.328;2022-09-19T13:35:53;47408.88;;;-144.02;23.58
29985;BME280;17387;42.690;23.328;2022-09-19T13:38:35;47388.56;;;-144.02;23.05
29985;BME280;17387;42.690;23.328;2022-09-19T13:41:33;47408.88;;;-144.02;23.83
29985;BME280;17387;42.690;23.328;2022-09-19T13:44:19;47404.81;;;-144.02;23.58
29985;BME280;17387;42.690;23.328;2022-09-19T13:49:36;47425.13;;;-144.02;23.42
29985;BME280;17387;42.690;23.328;2022-09-19T13:52:09;47388.56;;;-144.02;23.46
29985;BME280;17387;42.690;23.328;2022-09-19T13:57:25;47445.44;;;-144.02;24.47
29985;BME280;17387;42.690;23.328;2022-09-19T13:59:56;47404.81;;;-144.02;24.31
29985;BME280;17387;42.690;23.328;2022-09-19T14:02:29;47364.19;;;-144.02;24.34
29985;BME280;17387;42.690;23.328;2022-09-19T14:05:17;47506.38;;;-144.02;24.66
29985;BME280;17387;42.690;23.328;2022-09-19T14:12:55;47412.94;;;-144.02;23.98
29985;BME280;17387;42.690;23.328;2022-09-19T14:16:10;47372.31;;;-144.02;23.70
29985;BME280;17387;42.690;23.328;2022-09-19T14:18:59;47433.25;;;-144.02;24.95
29985;BME280;17387;42.690;23.328;2022-09-19T14:29:52;47392.63;;;-144.02;24.73
29985;BME280;17387;42.690;23.328;2022-09-19T14:32:31;47394.66;;;-144.02;23.71
29985;BME280;17387;42.690;23.328;2022-09-19T14:41:10;47364.19;;;-144.02;23.01
29985;BME280;17387;42.690;23.328;2022-09-19T14:46:46;47400.75;;;-144.02;23.16
29985;BME280;17387;42.690;23.328;2022-09-19T14:49:26;47388.56;;;-144.02;23.29
29985;BME280;17387;42.690;23.328;2022-09-19T14:52:04;47396.69;;;-144.02;24.29
29985;BME280;17387;42.690;23.328;2022-09-19T14:54:39;47427.16;;;-144.02;24.95
29985;BME280;17387;42.690;23.328;2022-09-19T14:57:15;47394.66;;;-144.02;25.43
29985;BME280;17387;42.690;23.328;2022-09-19T14:59:46;47486.06;;;-144.02;25.11
29985;BME280;17387;42.690;23.328;2022-09-19T15:05:01;47390.59;;;-144.02;24.37
29985;BME280;17387;42.690;23.328;2022-09-19T15:07:31;47435.28;;;-144.02;24.91
29985;BME280;17387;42.690;23.328;2022-09-19T15:09:58;47429.19;;;-144.02;24.17
29985;BME280;17387;42.690;23.328;2022-09-19T15:12:33;47451.53;;;-144.02;24.53
29985;BME280;17387;42.690;23.328;2022-09-19T15:15:00;47453.56;;;-144.02;24.85
29985;BME280;17387;42.690;23.328;2022-09-19T15:17:27;47417.00;;;-144.02;25.37
29985;BME280;17387;42.690;23.328;2022-09-19T15:20:08;47477.94;;;-144.02;25.79
29985;BME280;17387;42.690;23.328;2022-09-19T15:22:58;47423.09;;;-144.02;26.51
29985;BME280;17387;42.690;23.328;2022-09-19T15:25:40;47514.50;;;-144.02;26.77
29985;BME280;17387;42.690;23.328;2022-09-19T15:28:27;47457.63;;;-144.02;27.11
29985;BME280;17387;42.690;23.328;2022-09-19T15:30:55;47457.63;;;-144.02;27.53
29985;BME280;17387;42.690;23.328;2022-09-19T15:33:25;47520.59;;;-144.02;28.16
29985;BME280;17387;42.690;23.328;2022-09-19T15:35:52;47404.81;;;-144.02;28.05
29985;BME280;17387;42.690;23.328;2022-09-19T15:38:27;47494.19;;;-144.02;28.49